sensor_id;sensor_type;location;lat;lon;timestamp;temperature;humidity
64062;DHT22;50308;47.438;-1.528;2024-01-30T00:01:15;11.00;99.90
64062;DHT22;50308;47.438;-1.528;2024-01-30T00:03:41;11.00;99.90
64062;DHT22;50308;47.438;-1.528;2024-01-30T00:06:10;11.00;99.90
64062;DHT22;50308;47.438;-1.528;2024-01-30T00:08:36;11.00;99.90
64062;DHT22;50308;47.438;-1.528;2024-01-30T00:11:02;11.00;99.90
64062;DHT22;50308;47.438;-1.528;2024-01-30T00:13:27;11.00;99.90
64062;DHT22;50308;47.438;-1.528;2024-01-30T00:15:53;11.00;99.90
64062;DHT22;50308;47.438;-1.528;2024-01-30T00:18:19;11.00;99.90
64062;DHT22;50308;47.438;-1.528;2024-01-30T00:20:45;11.00;99.90
64062;DHT22;50308;47.438;-1.528;2024-01-30T00:23:10;11.00;99.90
64062;DHT22;50308;47.438;-1.528;2024-01-30T00:25:36;11.00;99.90
64062;DHT22;50308;47.438;-1.528;2024-01-30T00:28:02;10.90;99.90
64062;DHT22;50308;47.438;-1.528;2024-01-30T00:30:28;10.90;99.90
64062;DHT22;50308;47.438;-1.528;2024-01-30T00:32:54;10.90;99.90
64062;DHT22;50308;47.438;-1.528;2024-01-30T00:35:19;10.90;99.90
64062;DHT22;50308;47.438;-1.528;2024-01-30T00:37:47;10.90;99.90
64062;DHT22;50308;47.438;-1.528;2024-01-30T00:40:13;10.90;99.90
64062;DHT22;50308;47.438;-1.528;2024-01-30T00:42:42;11.00;99.90
64062;DHT22;50308;47.438;-1.528;2024-01-30T00:45:17;10.90;99.90
64062;DHT22;50308;47.438;-1.528;2024-01-30T00:47:43;10.90;99.90
64062;DHT22;50308;47.438;-1.528;2024-01-30T00:50:09;10.90;99.90
64062;DHT22;50308;47.438;-1.528;2024-01-30T00:52:35;10.90;99.90
64062;DHT22;50308;47.438;-1.528;2024-01-30T00:55:01;11.00;99.90
64062;DHT22;50308;47.438;-1.528;2024-01-30T00:57:26;11.00;99.90
64062;DHT22;50308;47.438;-1.528;2024-01-30T00:59:52;11.00;99.90
64062;DHT22;50308;47.438;-1.528;2024-01-30T01:02:18;11.00;99.90
64062;DHT22;50308;47.438;-1.528;2024-01-30T01:04:44;11.10;99.90
64062;DHT22;50308;47.438;-1.528;2024-01-30T01:07:10;11.10;99.90
64062;DHT22;50308;47.438;-1.528;2024-01-30T01:09:36;11.10;99.90
64062;DHT22;50308;47.438;-1.528;2024-01-30T01:12:03;11.10;99.90
64062;DHT22;50308;47.438;-1.528;2024-01-30T01:14:28;11.10;99.90
64062;DHT22;50308;47.438;-1.528;2024-01-30T01:16:54;11.10;99.90
64062;DHT22;50308;47.438;-1.528;2024-01-30T01:19:20;11.20;99.90
64062;DHT22;50308;47.438;-1.528;2024-01-30T01:21:45;11.20;99.90
64062;DHT22;50308;47.438;-1.528;2024-01-30T01:24:11;11.20;99.90
64062;DHT22;50308;47.438;-1.528;2024-01-30T01:26:37;11.20;99.90
64062;DHT22;50308;47.438;-1.528;2024-01-30T01:29:02;11.20;99.90
64062;DHT22;50308;47.438;-1.528;2024-01-30T01:31:35;11.20;99.90
64062;DHT22;50308;47.438;-1.528;2024-01-30T01:34:05;11.20;99.90
64062;DHT22;50308;47.438;-1.528;2024-01-30T01:36:31;11.20;99.90
64062;DHT22;50308;47.438;-1.528;2024-01-30T01:38:57;11.20;99.90
64062;DHT22;50308;47.438;-1.528;2024-01-30T01:41:22;11.20;99.90
64062;DHT22;50308;47.438;-1.528;2024-01-30T01:43:48;11.30;99.90
64062;DHT22;50308;47.438;-1.528;2024-01-30T01:46:14;11.30;99.90
64062;DHT22;50308;47.438;-1.528;2024-01-30T01:48:41;11.30;99.90
64062;DHT22;50308;47.438;-1.528;2024-01-30T01:51:08;11.30;99.90
64062;DHT22;50308;47.438;-1.528;2024-01-30T01:53:34;11.30;99.90
64062;DHT22;50308;47.438;-1.528;2024-01-30T01:56:00;11.30;99.90
64062;DHT22;50308;47.438;-1.528;2024-01-30T01:58:27;11.30;99.90
64062;DHT22;50308;47.438;-1.528;2024-01-30T02:00:54;11.30;99.90
64062;DHT22;50308;47.438;-1.528;2024-01-30T02:03:21;11.30;99.90
64062;DHT22;50308;47.438;-1.528;2024-01-30T02:05:47;11.40;99.90
64062;DHT22;50308;47.438;-1.528;2024-01-30T02:08:13;11.40;99.90
64062;DHT22;50308;47.438;-1.528;2024-01-30T02:10:39;11.40;99.90
64062;DHT22;50308;47.438;-1.528;2024-01-30T02:13:04;11.40;99.90
64062;DHT22;50308;47.438;-1.528;2024-01-30T02:15:30;11.40;99.90
64062;DHT22;50308;47.438;-1.528;2024-01-30T02:17:56;11.40;99.90
64062;DHT22;50308;47.438;-1.528;2024-01-30T02:20:23;11.40;99.90
64062;DHT22;50308;47.438;-1.528;2024-01-30T02:22:52;11.40;99.90
64062;DHT22;50308;47.438;-1.528;2024-01-30T02:25:18;11.40;99.90
64062;DHT22;50308;47.438;-1.528;2024-01-30T02:27:43;11.50;99.90
64062;DHT22;50308;47.438;-1.528;2024-01-30T02:30:10;11.50;99.90
64062;DHT22;50308;47.438;-1.528;2024-01-30T02:32:35;11.50;99.90
64062;DHT22;50308;47.438;-1.528;2024-01-30T02:35:01;11.50;99.90
64062;DHT22;50308;47.438;-1.528;2024-01-30T02:37:27;11.50;99.90
64062;DHT22;50308;47.438;-1.528;2024-01-30T02:39:52;11.50;99.90
64062;DHT22;50308;47.438;-1.528;2024-01-30T02:42:18;11.50;99.90
64062;DHT22;50308;47.438;-1.528;2024-01-30T02:44:44;11.50;99.90
64062;DHT22;50308;47.438;-1.528;2024-01-30T02:47:09;11.50;99.90
64062;DHT22;50308;47.438;-1.528;2024-01-30T02:49:35;11.50;99.90
64062;DHT22;50308;47.438;-1.528;2024-01-30T02:52:00;11.50;99.90
64062;DHT22;50308;47.438;-1.528;2024-01-30T02:54:26;11.50;99.90
64062;DHT22;50308;47.438;-1.528;2024-01-30T02:56:52;11.50;99.90
64062;DHT22;50308;47.438;-1.528;2024-01-30T02:59:17;11.50;99.90
64062;DHT22;50308;47.438;-1.528;2024-01-30T03:01:44;11.50;99.90
64062;DHT22;50308;47.438;-1.528;2024-01-30T03:04:10;11.50;99.90
64062;DHT22;50308;47.438;-1.528;2024-01-30T03:06:36;11.60;99.90
64062;DHT22;50308;47.438;-1.528;2024-01-30T03:09:02;11.60;99.90
64062;DHT22;50308;47.438;-1.528;2024-01-30T03:11:28;11.50;99.90
64062;DHT22;50308;47.438;-1.528;2024-01-30T03:13:54;11.60;99.90
64062;DHT22;50308;47.438;-1.528;2024-01-30T03:16:19;11.60;99.90
64062;DHT22;50308;47.438;-1.528;2024-01-30T03:18:45;11.60;99.90
64062;DHT22;50308;47.438;-1.528;2024-01-30T03:21:10;11.60;99.90
64062;DHT22;50308;47.438;-1.528;2024-01-30T03:23:36;11.60;99.90
64062;DHT22;50308;47.438;-1.528;2024-01-30T03:26:02;11.60;99.90
64062;DHT22;50308;47.438;-1.528;2024-01-30T03:28:29;11.60;99.90
64062;DHT22;50308;47.438;-1.528;2024-01-30T03:30:55;11.70;99.90
64062;DHT22;50308;47.438;-1.528;2024-01-30T03:33:21;11.70;99.90
64062;DHT22;50308;47.438;-1.528;2024-01-30T03:35:46;11.70;99.90
64062;DHT22;50308;47.438;-1.528;2024-01-30T03:38:12;11.70;99.90
64062;DHT22;50308;47.438;-1.528;2024-01-30T03:40:37;11.70;99.90
64062;DHT22;50308;47.438;-1.528;2024-01-30T03:43:03;11.70;99.90
64062;DHT22;50308;47.438;-1.528;2024-01-30T03:45:30;11.70;99.90
64062;DHT22;50308;47.438;-1.528;2024-01-30T03:47:56;11.70;99.90
64062;DHT22;50308;47.438;-1.528;2024-01-30T03:50:21;11.70;99.90
64062;DHT22;50308;47.438;-1.528;2024-01-30T03:52:47;11.70;99.90
64062;DHT22;50308;47.438;-1.528;2024-01-30T03:55:13;11.70;99.90
64062;DHT22;50308;47.438;-1.528;2024-01-30T03:57:38;11.70;99.90
64062;DHT22;50308;47.438;-1.528;2024-01-30T04:00:04;11.70;99.90
64062;DHT22;50308;47.438;-1.528;2024-01-30T04:02:30;11.70;99.90
64062;DHT22;50308;47.438;-1.528;2024-01-30T04:04:56;11.80;99.90
64062;DHT22;50308;47.438;-1.528;2024-01-30T04:07:21;11.70;99.90
64062;DHT22;50308;47.438;-1.528;2024-01-30T04:09:47;11.70;99.90
64062;DHT22;50308;47.438;-1.528;2024-01-30T04:12:14;11.80;99.90
64062;DHT22;50308;47.438;-1.528;2024-01-30T04:14:39;11.80;99.90
64062;DHT22;50308;47.438;-1.528;2024-01-30T04:17:05;11.70;99.90
64062;DHT22;50308;47.438;-1.528;2024-01-30T04:19:31;11.80;99.90
64062;DHT22;50308;47.438;-1.528;2024-01-30T04:21:56;11.80;99.90
64062;DHT22;50308;47.438;-1.528;2024-01-30T04:24:22;11.80;99.90
64062;DHT22;50308;47.438;-1.528;2024-01-30T04:26:47;11.70;99.90
64062;DHT22;50308;47.438;-1.528;2024-01-30T04:29:13;11.70;99.90
64062;DHT22;50308;47.438;-1.528;2024-01-30T04:31:39;11.70;99.90
64062;DHT22;50308;47.438;-1.528;2024-01-30T04:34:04;11.80;99.90
64062;DHT22;50308;47.438;-1.528;2024-01-30T04:36:30;11.80;99.90
64062;DHT22;50308;47.438;-1.528;2024-01-30T04:38:55;11.70;99.90
64062;DHT22;50308;47.438;-1.528;2024-01-30T04:41:21;11.80;99.90
64062;DHT22;50308;47.438;-1.528;2024-01-30T04:43:47;11.70;99.90
64062;DHT22;50308;47.438;-1.528;2024-01-30T04:46:12;11.80;99.90
64062;DHT22;50308;47.438;-1.528;2024-01-30T04:48:38;11.80;99.90
64062;DHT22;50308;47.438;-1.528;2024-01-30T04:51:04;11.70;99.90
64062;DHT22;50308;47.438;-1.528;2024-01-30T04:53:30;11.80;99.90
64062;DHT22;50308;47.438;-1.528;2024-01-30T04:55:56;11.70;99.90
64062;DHT22;50308;47.438;-1.528;2024-01-30T04:58:22;11.80;99.90
64062;DHT22;50308;47.438;-1.528;2024-01-30T05:00:48;11.80;99.90
64062;DHT22;50308;47.438;-1.528;2024-01-30T05:03:18;11.70;99.90
64062;DHT22;50308;47.438;-1.528;2024-01-30T05:05:44;11.70;99.90
64062;DHT22;50308;47.438;-1.528;2024-01-30T05:08:10;11.70;99.90
64062;DHT22;50308;47.438;-1.528;2024-01-30T05:10:35;11.70;99.90
64062;DHT22;50308;47.438;-1.528;2024-01-30T05:13:01;11.70;99.90
64062;DHT22;50308;47.438;-1.528;2024-01-30T05:15:27;11.70;99.90
64062;DHT22;50308;47.438;-1.528;2024-01-30T05:17:52;11.70;99.90
64062;DHT22;50308;47.438;-1.528;2024-01-30T05:20:19;11.70;99.90
64062;DHT22;50308;47.438;-1.528;2024-01-30T05:22:45;11.70;99.90
64062;DHT22;50308;47.438;-1.528;2024-01-30T05:25:14;11.70;99.90
64062;DHT22;50308;47.438;-1.528;2024-01-30T05:27:40;11.70;99.90
64062;DHT22;50308;47.438;-1.528;2024-01-30T05:30:06;11.70;99.90
64062;DHT22;50308;47.438;-1.528;2024-01-30T05:32:32;11.70;99.90
64062;DHT22;50308;47.438;-1.528;2024-01-30T05:34:58;11.70;99.90
64062;DHT22;50308;47.438;-1.528;2024-01-30T05:37:24;11.70;99.90
64062;DHT22;50308;47.438;-1.528;2024-01-30T05:39:49;11.70;99.90
64062;DHT22;50308;47.438;-1.528;2024-01-30T05:42:15;11.70;99.90
64062;DHT22;50308;47.438;-1.528;2024-01-30T05:44:42;11.70;99.90
64062;DHT22;50308;47.438;-1.528;2024-01-30T05:47:08;11.70;99.90
64062;DHT22;50308;47.438;-1.528;2024-01-30T05:49:33;11.70;99.90
64062;DHT22;50308;47.438;-1.528;2024-01-30T05:52:01;11.70;99.90
64062;DHT22;50308;47.438;-1.528;2024-01-30T05:54:27;11.70;99.90
64062;DHT22;50308;47.438;-1.528;2024-01-30T05:56:53;11.70;99.90
64062;DHT22;50308;47.438;-1.528;2024-01-30T05:59:18;11.70;99.90
64062;DHT22;50308;47.438;-1.528;2024-01-30T06:01:47;11.70;99.90
64062;DHT22;50308;47.438;-1.528;2024-01-30T06:04:13;11.70;99.90
64062;DHT22;50308;47.438;-1.528;2024-01-30T06:06:39;11.70;99.90
64062;DHT22;50308;47.438;-1.528;2024-01-30T06:09:05;11.70;99.90
64062;DHT22;50308;47.438;-1.528;2024-01-30T06:11:32;11.70;99.90
64062;DHT22;50308;47.438;-1.528;2024-01-30T06:13:57;11.70;99.90
64062;DHT22;50308;47.438;-1.528;2024-01-30T06:16:23;11.60;99.90
64062;DHT22;50308;47.438;-1.528;2024-01-30T06:18:48;11.70;99.90
64062;DHT22;50308;47.438;-1.528;2024-01-30T06:21:14;11.70;99.90
64062;DHT22;50308;47.438;-1.528;2024-01-30T06:23:40;11.70;99.90
64062;DHT22;50308;47.438;-1.528;2024-01-30T06:26:07;11.60;99.90
64062;DHT22;50308;47.438;-1.528;2024-01-30T06:28:32;11.60;99.90
64062;DHT22;50308;47.438;-1.528;2024-01-30T06:30:58;11.60;99.90
64062;DHT22;50308;47.438;-1.528;2024-01-30T06:33:26;11.60;99.90
64062;DHT22;50308;47.438;-1.528;2024-01-30T06:35:51;11.60;99.90
64062;DHT22;50308;47.438;-1.528;2024-01-30T06:38:17;11.60;99.90
64062;DHT22;50308;47.438;-1.528;2024-01-30T06:40:42;11.60;99.90
64062;DHT22;50308;47.438;-1.528;2024-01-30T06:43:08;11.60;99.90
64062;DHT22;50308;47.438;-1.528;2024-01-30T06:45:34;11.60;99.90
64062;DHT22;50308;47.438;-1.528;2024-01-30T06:48:00;11.60;99.90
64062;DHT22;50308;47.438;-1.528;2024-01-30T06:50:26;11.60;99.90
64062;DHT22;50308;47.438;-1.528;2024-01-30T06:52:51;11.60;99.90
64062;DHT22;50308;47.438;-1.528;2024-01-30T06:55:18;11.60;99.90
64062;DHT22;50308;47.438;-1.528;2024-01-30T06:57:43;11.60;99.90
64062;DHT22;50308;47.438;-1.528;2024-01-30T07:00:10;11.60;99.90
64062;DHT22;50308;47.438;-1.528;2024-01-30T07:02:35;11.60;99.90
64062;DHT22;50308;47.438;-1.528;2024-01-30T07:05:02;11.60;99.90
64062;DHT22;50308;47.438;-1.528;2024-01-30T07:07:28;11.60;99.90
64062;DHT22;50308;47.438;-1.528;2024-01-30T07:09:54;11.60;99.90
64062;DHT22;50308;47.438;-1.528;2024-01-30T07:12:22;11.50;99.90
64062;DHT22;50308;47.438;-1.528;2024-01-30T07:14:50;11.50;99.90
64062;DHT22;50308;47.438;-1.528;2024-01-30T07:17:16;11.50;99.90
64062;DHT22;50308;47.438;-1.528;2024-01-30T07:19:41;11.40;99.90
64062;DHT22;50308;47.438;-1.528;2024-01-30T07:22:07;11.40;99.90
64062;DHT22;50308;47.438;-1.528;2024-01-30T07:24:33;11.40;99.90
64062;DHT22;50308;47.438;-1.528;2024-01-30T07:26:59;11.30;99.90
64062;DHT22;50308;47.438;-1.528;2024-01-30T07:29:25;11.30;99.90
64062;DHT22;50308;47.438;-1.528;2024-01-30T07:31:50;11.30;99.90
64062;DHT22;50308;47.438;-1.528;2024-01-30T07:34:16;11.30;99.90
64062;DHT22;50308;47.438;-1.528;2024-01-30T07:36:42;11.30;99.90
64062;DHT22;50308;47.438;-1.528;2024-01-30T07:39:07;11.20;99.90
64062;DHT22;50308;47.438;-1.528;2024-01-30T07:41:33;11.20;99.90
64062;DHT22;50308;47.438;-1.528;2024-01-30T07:44:00;11.10;99.90
64062;DHT22;50308;47.438;-1.528;2024-01-30T07:46:25;11.20;99.90
64062;DHT22;50308;47.438;-1.528;2024-01-30T07:48:51;11.10;99.90
64062;DHT22;50308;47.438;-1.528;2024-01-30T07:51:16;11.10;99.90
64062;DHT22;50308;47.438;-1.528;2024-01-30T07:53:42;11.10;99.90
64062;DHT22;50308;47.438;-1.528;2024-01-30T07:56:08;11.10;99.90
64062;DHT22;50308;47.438;-1.528;2024-01-30T07:58:33;11.10;99.90
64062;DHT22;50308;47.438;-1.528;2024-01-30T08:00:59;11.10;99.90
64062;DHT22;50308;47.438;-1.528;2024-01-30T08:03:25;11.00;99.90
64062;DHT22;50308;47.438;-1.528;2024-01-30T08:05:51;11.00;99.90
64062;DHT22;50308;47.438;-1.528;2024-01-30T08:08:17;11.00;99.90
64062;DHT22;50308;47.438;-1.528;2024-01-30T08:10:43;11.00;99.90
64062;DHT22;50308;47.438;-1.528;2024-01-30T08:13:08;10.90;99.90
64062;DHT22;50308;47.438;-1.528;2024-01-30T08:15:34;10.90;99.90
64062;DHT22;50308;47.438;-1.528;2024-01-30T08:18:00;10.90;99.90
64062;DHT22;50308;47.438;-1.528;2024-01-30T08:20:26;10.90;99.90
64062;DHT22;50308;47.438;-1.528;2024-01-30T08:22:52;10.90;99.90
64062;DHT22;50308;47.438;-1.528;2024-01-30T08:25:18;10.90;99.90
64062;DHT22;50308;47.438;-1.528;2024-01-30T08:27:44;10.90;99.90
64062;DHT22;50308;47.438;-1.528;2024-01-30T08:30:10;10.90;99.90
64062;DHT22;50308;47.438;-1.528;2024-01-30T08:32:36;10.80;99.90
64062;DHT22;50308;47.438;-1.528;2024-01-30T08:35:02;10.80;99.90
64062;DHT22;50308;47.438;-1.528;2024-01-30T08:37:30;10.80;99.90
64062;DHT22;50308;47.438;-1.528;2024-01-30T08:39:56;10.80;99.90
64062;DHT22;50308;47.438;-1.528;2024-01-30T08:42:22;10.80;99.90
64062;DHT22;50308;47.438;-1.528;2024-01-30T08:44:48;10.80;99.90
64062;DHT22;50308;47.438;-1.528;2024-01-30T08:47:15;10.80;99.90
64062;DHT22;50308;47.438;-1.528;2024-01-30T08:49:42;10.80;99.90
64062;DHT22;50308;47.438;-1.528;2024-01-30T08:52:10;10.80;99.90
64062;DHT22;50308;47.438;-1.528;2024-01-30T08:54:35;10.80;99.90
64062;DHT22;50308;47.438;-1.528;2024-01-30T08:57:01;10.90;99.90
64062;DHT22;50308;47.438;-1.528;2024-01-30T08:59:27;10.90;99.90
64062;DHT22;50308;47.438;-1.528;2024-01-30T09:01:53;10.90;99.90
64062;DHT22;50308;47.438;-1.528;2024-01-30T09:04:21;10.90;99.90
64062;DHT22;50308;47.438;-1.528;2024-01-30T09:06:48;10.90;99.90
64062;DHT22;50308;47.438;-1.528;2024-01-30T09:09:14;11.00;99.90
64062;DHT22;50308;47.438;-1.528;2024-01-30T09:11:40;11.00;99.90
64062;DHT22;50308;47.438;-1.528;2024-01-30T09:14:06;11.00;99.90
64062;DHT22;50308;47.438;-1.528;2024-01-30T09:16:32;11.00;99.90
64062;DHT22;50308;47.438;-1.528;2024-01-30T09:18:58;11.10;99.90
64062;DHT22;50308;47.438;-1.528;2024-01-30T09:21:23;11.10;99.90
64062;DHT22;50308;47.438;-1.528;2024-01-30T09:23:49;11.10;99.90
64062;DHT22;50308;47.438;-1.528;2024-01-30T09:26:15;11.10;99.90
64062;DHT22;50308;47.438;-1.528;2024-01-30T09:28:40;11.10;99.90
64062;DHT22;50308;47.438;-1.528;2024-01-30T09:31:14;11.10;99.90
64062;DHT22;50308;47.438;-1.528;2024-01-30T09:33:39;11.10;99.90
64062;DHT22;50308;47.438;-1.528;2024-01-30T09:36:05;11.20;99.90
64062;DHT22;50308;47.438;-1.528;2024-01-30T09:38:31;11.20;99.90
64062;DHT22;50308;47.438;-1.528;2024-01-30T09:41:01;11.20;99.90
64062;DHT22;50308;47.438;-1.528;2024-01-30T09:43:33;11.20;99.90
64062;DHT22;50308;47.438;-1.528;2024-01-30T09:46:00;11.20;99.90
64062;DHT22;50308;47.438;-1.528;2024-01-30T09:48:29;11.20;99.90
64062;DHT22;50308;47.438;-1.528;2024-01-30T09:50:57;11.30;99.90
64062;DHT22;50308;47.438;-1.528;2024-01-30T09:53:23;11.30;99.90
64062;DHT22;50308;47.438;-1.528;2024-01-30T09:55:50;11.30;99.90
64062;DHT22;50308;47.438;-1.528;2024-01-30T09:58:16;11.30;99.90
64062;DHT22;50308;47.438;-1.528;2024-01-30T10:00:42;11.30;99.90
64062;DHT22;50308;47.438;-1.528;2024-01-30T10:03:08;11.30;99.90
64062;DHT22;50308;47.438;-1.528;2024-01-30T10:05:35;11.30;99.90
64062;DHT22;50308;47.438;-1.528;2024-01-30T10:08:06;11.30;99.90
64062;DHT22;50308;47.438;-1.528;2024-01-30T10:10:33;11.30;99.90
64062;DHT22;50308;47.438;-1.528;2024-01-30T10:12:59;11.40;99.90
64062;DHT22;50308;47.438;-1.528;2024-01-30T10:15:25;11.40;99.90
64062;DHT22;50308;47.438;-1.528;2024-01-30T10:17:53;11.40;99.90
64062;DHT22;50308;47.438;-1.528;2024-01-30T10:20:18;11.30;99.90
64062;DHT22;50308;47.438;-1.528;2024-01-30T10:22:45;11.40;99.90
64062;DHT22;50308;47.438;-1.528;2024-01-30T10:25:11;11.40;99.90
64062;DHT22;50308;47.438;-1.528;2024-01-30T10:27:39;11.40;99.90
64062;DHT22;50308;47.438;-1.528;2024-01-30T10:30:05;11.40;99.90
64062;DHT22;50308;47.438;-1.528;2024-01-30T10:32:31;11.40;99.90
64062;DHT22;50308;47.438;-1.528;2024-01-30T10:34:56;11.40;99.90
64062;DHT22;50308;47.438;-1.528;2024-01-30T10:37:25;11.40;99.90
64062;DHT22;50308;47.438;-1.528;2024-01-30T10:39:53;11.40;99.90
64062;DHT22;50308;47.438;-1.528;2024-01-30T10:42:25;11.40;99.90
64062;DHT22;50308;47.438;-1.528;2024-01-30T10:47:34;11.40;99.90
64062;DHT22;50308;47.438;-1.528;2024-01-30T10:50:02;11.40;99.90
64062;DHT22;50308;47.438;-1.528;2024-01-30T10:52:29;11.40;99.90
64062;DHT22;50308;47.438;-1.528;2024-01-30T10:54:56;11.40;99.90
64062;DHT22;50308;47.438;-1.528;2024-01-30T10:57:23;11.50;99.90
64062;DHT22;50308;47.438;-1.528;2024-01-30T10:59:51;11.50;99.90
64062;DHT22;50308;47.438;-1.528;2024-01-30T11:02:18;11.50;99.90
64062;DHT22;50308;47.438;-1.528;2024-01-30T11:04:45;11.50;99.90
64062;DHT22;50308;47.438;-1.528;2024-01-30T11:07:16;11.40;99.90
64062;DHT22;50308;47.438;-1.528;2024-01-30T11:09:51;11.50;99.90
64062;DHT22;50308;47.438;-1.528;2024-01-30T11:12:22;11.50;99.90
64062;DHT22;50308;47.438;-1.528;2024-01-30T11:14:49;11.50;99.90
64062;DHT22;50308;47.438;-1.528;2024-01-30T11:17:15;11.50;99.90
64062;DHT22;50308;47.438;-1.528;2024-01-30T11:19:41;11.50;99.90
64062;DHT22;50308;47.438;-1.528;2024-01-30T11:22:10;11.60;99.90
64062;DHT22;50308;47.438;-1.528;2024-01-30T11:24:40;11.50;99.90
64062;DHT22;50308;47.438;-1.528;2024-01-30T11:27:09;11.60;99.90
64062;DHT22;50308;47.438;-1.528;2024-01-30T11:29:40;11.60;99.90
64062;DHT22;50308;47.438;-1.528;2024-01-30T11:32:05;11.60;99.90
64062;DHT22;50308;47.438;-1.528;2024-01-30T11:34:32;11.60;99.90
64062;DHT22;50308;47.438;-1.528;2024-01-30T11:37:04;11.60;99.90
64062;DHT22;50308;47.438;-1.528;2024-01-30T11:39:36;11.60;99.90
64062;DHT22;50308;47.438;-1.528;2024-01-30T11:42:03;11.60;99.90
64062;DHT22;50308;47.438;-1.528;2024-01-30T11:44:30;11.60;99.90
64062;DHT22;50308;47.438;-1.528;2024-01-30T11:46:56;11.60;99.90
64062;DHT22;50308;47.438;-1.528;2024-01-30T11:49:23;11.60;99.90
64062;DHT22;50308;47.438;-1.528;2024-01-30T11:51:49;11.60;99.90
64062;DHT22;50308;47.438;-1.528;2024-01-30T11:54:16;11.60;99.90
64062;DHT22;50308;47.438;-1.528;2024-01-30T11:56:42;11.60;99.90
64062;DHT22;50308;47.438;-1.528;2024-01-30T11:59:08;11.60;99.90
64062;DHT22;50308;47.438;-1.528;2024-01-30T12:01:34;11.70;99.90
64062;DHT22;50308;47.438;-1.528;2024-01-30T12:04:00;11.70;99.90
64062;DHT22;50308;47.438;-1.528;2024-01-30T12:06:27;11.70;99.90
64062;DHT22;50308;47.438;-1.528;2024-01-30T12:09:00;11.70;99.90
64062;DHT22;50308;47.438;-1.528;2024-01-30T12:11:27;11.70;99.90
64062;DHT22;50308;47.438;-1.528;2024-01-30T12:13:53;11.70;99.90
64062;DHT22;50308;47.438;-1.528;2024-01-30T12:16:19;11.70;99.90
64062;DHT22;50308;47.438;-1.528;2024-01-30T12:18:45;11.70;99.90
64062;DHT22;50308;47.438;-1.528;2024-01-30T12:21:11;11.70;99.90
64062;DHT22;50308;47.438;-1.528;2024-01-30T12:23:36;11.70;99.90
64062;DHT22;50308;47.438;-1.528;2024-01-30T12:26:03;11.70;99.90
64062;DHT22;50308;47.438;-1.528;2024-01-30T12:28:32;11.70;99.90
64062;DHT22;50308;47.438;-1.528;2024-01-30T12:31:04;11.70;99.90
64062;DHT22;50308;47.438;-1.528;2024-01-30T12:33:30;11.70;99.90
64062;DHT22;50308;47.438;-1.528;2024-01-30T12:35:57;11.70;99.90
64062;DHT22;50308;47.438;-1.528;2024-01-30T12:38:24;11.70;99.90
64062;DHT22;50308;47.438;-1.528;2024-01-30T12:40:56;11.70;99.90
64062;DHT22;50308;47.438;-1.528;2024-01-30T12:43:26;11.70;99.90
64062;DHT22;50308;47.438;-1.528;2024-01-30T12:45:55;11.70;99.90
64062;DHT22;50308;47.438;-1.528;2024-01-30T12:48:20;11.70;99.90
64062;DHT22;50308;47.438;-1.528;2024-01-30T12:50:46;11.70;99.90
64062;DHT22;50308;47.438;-1.528;2024-01-30T12:53:12;11.80;99.90
64062;DHT22;50308;47.438;-1.528;2024-01-30T12:55:38;11.80;99.90
64062;DHT22;50308;47.438;-1.528;2024-01-30T12:58:04;11.70;99.90
64062;DHT22;50308;47.438;-1.528;2024-01-30T13:00:30;11.70;99.90
64062;DHT22;50308;47.438;-1.528;2024-01-30T13:02:55;11.80;99.90
64062;DHT22;50308;47.438;-1.528;2024-01-30T13:05:21;11.80;99.90
64062;DHT22;50308;47.438;-1.528;2024-01-30T13:07:47;11.80;99.90
64062;DHT22;50308;47.438;-1.528;2024-01-30T13:10:13;11.80;99.90
64062;DHT22;50308;47.438;-1.528;2024-01-30T13:12:38;11.80;99.90
64062;DHT22;50308;47.438;-1.528;2024-01-30T13:15:05;11.80;99.90
64062;DHT22;50308;47.438;-1.528;2024-01-30T13:17:31;11.80;99.90
64062;DHT22;50308;47.438;-1.528;2024-01-30T13:19:57;11.80;99.90
64062;DHT22;50308;47.438;-1.528;2024-01-30T13:22:24;11.80;99.90
64062;DHT22;50308;47.438;-1.528;2024-01-30T13:24:50;11.80;99.90
64062;DHT22;50308;47.438;-1.528;2024-01-30T13:27:16;11.80;99.90
64062;DHT22;50308;47.438;-1.528;2024-01-30T13:29:41;11.80;99.90
64062;DHT22;50308;47.438;-1.528;2024-01-30T13:32:07;11.80;99.90
64062;DHT22;50308;47.438;-1.528;2024-01-30T13:34:33;11.80;99.90
64062;DHT22;50308;47.438;-1.528;2024-01-30T13:36:58;11.80;99.90
64062;DHT22;50308;47.438;-1.528;2024-01-30T13:39:24;11.80;99.90
64062;DHT22;50308;47.438;-1.528;2024-01-30T13:41:50;11.80;99.90
64062;DHT22;50308;47.438;-1.528;2024-01-30T13:44:16;11.80;99.90
64062;DHT22;50308;47.438;-1.528;2024-01-30T13:46:43;11.80;99.90
64062;DHT22;50308;47.438;-1.528;2024-01-30T13:49:09;11.80;99.90
64062;DHT22;50308;47.438;-1.528;2024-01-30T13:51:34;11.80;99.90
64062;DHT22;50308;47.438;-1.528;2024-01-30T13:54:00;11.80;99.90
64062;DHT22;50308;47.438;-1.528;2024-01-30T13:56:26;11.80;99.90
64062;DHT22;50308;47.438;-1.528;2024-01-30T13:58:52;11.80;99.90
64062;DHT22;50308;47.438;-1.528;2024-01-30T14:01:18;11.90;99.90
64062;DHT22;50308;47.438;-1.528;2024-01-30T14:03:43;11.80;99.90
64062;DHT22;50308;47.438;-1.528;2024-01-30T14:06:10;11.80;99.90
64062;DHT22;50308;47.438;-1.528;2024-01-30T14:08:35;11.80;99.90
64062;DHT22;50308;47.438;-1.528;2024-01-30T14:11:01;11.80;99.90
64062;DHT22;50308;47.438;-1.528;2024-01-30T14:13:27;11.90;99.90
64062;DHT22;50308;47.438;-1.528;2024-01-30T14:15:53;11.90;99.90
64062;DHT22;50308;47.438;-1.528;2024-01-30T14:18:18;11.80;99.90
64062;DHT22;50308;47.438;-1.528;2024-01-30T14:20:44;11.90;99.90
64062;DHT22;50308;47.438;-1.528;2024-01-30T14:23:10;11.90;99.90
64062;DHT22;50308;47.438;-1.528;2024-01-30T14:25:35;11.90;99.90
64062;DHT22;50308;47.438;-1.528;2024-01-30T14:28:01;11.90;99.90
64062;DHT22;50308;47.438;-1.528;2024-01-30T14:30:27;11.90;99.90
64062;DHT22;50308;47.438;-1.528;2024-01-30T14:32:52;11.90;99.90
64062;DHT22;50308;47.438;-1.528;2024-01-30T14:35:18;11.90;99.90
64062;DHT22;50308;47.438;-1.528;2024-01-30T14:37:45;11.90;99.90
64062;DHT22;50308;47.438;-1.528;2024-01-30T14:40:11;11.90;99.90
64062;DHT22;50308;47.438;-1.528;2024-01-30T14:42:36;11.90;99.90
64062;DHT22;50308;47.438;-1.528;2024-01-30T14:45:04;11.90;99.90
64062;DHT22;50308;47.438;-1.528;2024-01-30T14:47:29;11.90;99.90
64062;DHT22;50308;47.438;-1.528;2024-01-30T14:49:57;11.90;99.90
64062;DHT22;50308;47.438;-1.528;2024-01-30T14:52:22;11.90;99.90
64062;DHT22;50308;47.438;-1.528;2024-01-30T14:54:48;12.00;99.90
64062;DHT22;50308;47.438;-1.528;2024-01-30T14:57:13;12.00;99.90
64062;DHT22;50308;47.438;-1.528;2024-01-30T14:59:40;12.00;99.90
64062;DHT22;50308;47.438;-1.528;2024-01-30T15:02:06;12.00;99.90
64062;DHT22;50308;47.438;-1.528;2024-01-30T15:04:32;12.00;99.90
64062;DHT22;50308;47.438;-1.528;2024-01-30T15:06:58;12.00;99.90
64062;DHT22;50308;47.438;-1.528;2024-01-30T15:09:24;12.00;99.90
64062;DHT22;50308;47.438;-1.528;2024-01-30T15:11:52;12.00;99.90